Roulette, Pennsylvania
Current Conditions -  °F | °C
As of 3:21 PM on Wednesday 26 Nov 2014 (Local Time) from KELZ Reporting Station
Light Snow Light Snow  
Wind Chill: 23°   Ceiling: 400
Heat Index: 29°   Visibility: 3mi
Dew Point: 26°   Wind: 6mph
Humidity: 89%   Direction: 360°N
Pressure: 29.99"   Gusts: NA
Location:  41.78°N, 78.15°W
Report Text: KELZ 262021Z AUTO 36005KT 3SM -SN BR BKN004 OVC012 M02/M03 A2999 RMK AO2 P0001 T10171033
Loading
Personal Weather Stations






























Interactive Weather Map New forecast layout! Learn more

10-Day Weather Forecast

Advertisements
Track Severe Weather on mobile